createdAt,value
2022-11-30T00:02:19.183Z,76.40
2022-11-30T00:05:04.751Z,67.78
2022-11-30T00:07:51.047Z,68.50
2022-11-30T00:10:38.915Z,66.82
2022-11-30T00:13:24.637Z,72.43
2022-11-30T00:16:10.685Z,70.85
2022-11-30T00:18:56.135Z,69.05
2022-11-30T00:21:41.784Z,67.63
2022-11-30T00:24:27.157Z,72.68
2022-11-30T00:27:13.065Z,74.15
2022-11-30T00:29:58.804Z,73.38
2022-11-30T00:32:44.317Z,69.75
2022-11-30T00:35:31.991Z,61.92
2022-11-30T00:38:17.590Z,69.43
2022-11-30T00:41:03.849Z,74.90
2022-11-30T00:43:49.355Z,70.82
2022-11-30T00:46:34.752Z,64.75
2022-11-30T00:49:20.315Z,72.97
2022-11-30T00:52:05.836Z,61.88
2022-11-30T00:54:51.187Z,69.03
2022-11-30T00:57:36.477Z,60.38
2022-11-30T01:00:21.979Z,62.72
2022-11-30T01:03:07.559Z,59.78
2022-11-30T01:05:53.148Z,60.50
2022-11-30T01:08:38.483Z,58.45
2022-11-30T01:11:26.837Z,57.85
2022-11-30T01:14:12.817Z,60.75
2022-11-30T01:16:58.213Z,55.58
2022-11-30T01:19:43.624Z,58.60
2022-11-30T01:22:29.521Z,64.47
2022-11-30T01:25:14.801Z,55.10
2022-11-30T01:28:00.290Z,62.75
2022-11-30T01:30:46.025Z,58.55
2022-11-30T01:33:31.837Z,64.30
2022-11-30T01:36:20.458Z,60.50
2022-11-30T01:39:09.437Z,57.78
2022-11-30T01:41:55.144Z,63.03
2022-11-30T01:44:52.693Z,58.90
2022-11-30T01:47:48.195Z,53.42
2022-11-30T01:50:35.996Z,62.80
2022-11-30T01:53:22.398Z,67.55
2022-11-30T01:56:07.964Z,59.03
2022-11-30T01:58:53.844Z,56.55
2022-11-30T02:01:39.313Z,61.92
2022-11-30T02:04:34.599Z,62.83
2022-11-30T02:07:20.116Z,56.92
2022-11-30T02:10:06.209Z,60.55
2022-11-30T02:13:13.612Z,52.97
2022-11-30T02:16:21.121Z,55.60
2022-11-30T02:19:43.940Z,59.78
2022-11-30T02:22:39.371Z,56.08
2022-11-30T02:25:42.964Z,53.00
2022-11-30T02:28:58.868Z,51.65
2022-11-30T02:31:47.640Z,57.33
2022-11-30T02:34:36.993Z,59.00
2022-11-30T02:37:24.182Z,56.85
2022-11-30T02:40:13.390Z,53.88
2022-11-30T02:43:02.265Z,56.72
2022-11-30T02:46:04.494Z,51.35
2022-11-30T02:48:55.957Z,62.50
2022-11-30T02:51:42.985Z,64.10
2022-11-30T02:54:28.641Z,62.95
2022-11-30T02:57:14.185Z,56.13
2022-11-30T03:00:03.444Z,57.47
2022-11-30T03:02:48.611Z,62.22
2022-11-30T03:05:35.325Z,53.47
2022-11-30T03:08:20.482Z,58.00
2022-11-30T03:11:06.365Z,65.20
2022-11-30T03:13:52.017Z,60.92
2022-11-30T03:16:38.145Z,54.35
2022-11-30T03:19:23.554Z,48.60
2022-11-30T03:22:09.246Z,53.95
2022-11-30T03:24:54.810Z,50.00
2022-11-30T03:27:40.263Z,55.97
2022-11-30T03:30:25.688Z,47.50
2022-11-30T03:33:11.057Z,47.03
2022-11-30T03:36:02.149Z,48.10
2022-11-30T03:38:47.909Z,58.80
2022-11-30T03:41:32.880Z,51.80
2022-11-30T03:44:18.771Z,48.92
2022-11-30T03:47:04.285Z,48.13
2022-11-30T03:49:49.858Z,58.80
2022-11-30T03:52:35.403Z,53.08
2022-11-30T03:55:20.899Z,43.83
2022-11-30T03:58:06.416Z,54.03
2022-11-30T04:00:59.668Z,51.72
2022-11-30T04:03:45.104Z,50.10
2022-11-30T04:06:30.324Z,57.78
2022-11-30T04:09:16.533Z,48.45
2022-11-30T04:12:02.128Z,49.15
2022-11-30T04:14:47.910Z,44.47
2022-11-30T04:17:33.197Z,42.42
2022-11-30T04:20:18.661Z,37.63
2022-11-30T04:23:04.091Z,42.38
2022-11-30T04:25:49.712Z,53.22
2022-11-30T04:28:35.263Z,46.75
2022-11-30T04:31:20.416Z,41.83
2022-11-30T04:34:05.856Z,50.25
2022-11-30T04:36:53.834Z,48.38
2022-11-30T04:39:42.957Z,46.53
2022-11-30T04:42:28.513Z,49.03
2022-11-30T04:45:13.937Z,57.13
2022-11-30T04:47:59.276Z,53.53
2022-11-30T04:50:45.138Z,53.65
2022-11-30T04:53:30.480Z,56.13
2022-11-30T04:56:15.999Z,53.55
2022-11-30T04:59:02.168Z,53.55
2022-11-30T05:01:47.435Z,49.03
2022-11-30T05:04:33.076Z,53.00
2022-11-30T05:07:18.615Z,53.20
2022-11-30T05:10:05.966Z,47.63
2022-11-30T05:12:52.015Z,51.78
2022-11-30T05:15:37.124Z,57.03
2022-11-30T05:18:22.937Z,57.05
2022-11-30T05:21:08.155Z,51.58
2022-11-30T05:23:53.872Z,42.80
2022-11-30T05:26:39.101Z,46.35
2022-11-30T05:29:24.428Z,48.75
2022-11-30T05:32:09.960Z,49.78
2022-11-30T05:34:55.821Z,50.65
2022-11-30T05:37:41.306Z,52.65
2022-11-30T05:40:28.724Z,48.42
2022-11-30T05:43:13.996Z,54.05
2022-11-30T05:46:01.281Z,55.00
2022-11-30T05:48:46.454Z,53.28
2022-11-30T05:51:31.885Z,57.33
2022-11-30T05:54:17.428Z,76.85
2022-11-30T05:57:03.334Z,60.55
2022-11-30T05:59:48.416Z,62.42
2022-11-30T06:02:34.540Z,63.38
2022-11-30T06:05:19.998Z,83.70
2022-11-30T06:08:05.694Z,62.80
2022-11-30T06:10:51.380Z,77.55
2022-11-30T06:13:36.761Z,65.90
2022-11-30T06:16:22.051Z,70.07
2022-11-30T06:19:07.565Z,80.10
2022-11-30T06:21:53.532Z,64.80
2022-11-30T06:24:39.005Z,69.40
2022-11-30T06:27:24.541Z,78.30
2022-11-30T06:30:11.132Z,75.25
2022-11-30T06:32:56.576Z,98.25
2022-11-30T06:35:48.242Z,76.65
2022-11-30T06:38:33.692Z,89.18
2022-11-30T06:41:19.130Z,98.28
2022-11-30T06:44:11.127Z,84.50
2022-11-30T06:46:56.852Z,99.10
2022-11-30T06:49:42.299Z,72.00
2022-11-30T06:52:30.990Z,97.80
2022-11-30T06:55:16.464Z,93.15
2022-11-30T06:58:06.573Z,76.90
2022-11-30T07:00:52.090Z,69.78
2022-11-30T07:03:38.059Z,113.53
2022-11-30T07:06:23.584Z,139.95
2022-11-30T07:09:10.395Z,214.80
2022-11-30T07:11:55.890Z,111.90
2022-11-30T07:14:41.593Z,265.63
2022-11-30T07:17:27.257Z,139.52
2022-11-30T07:20:13.216Z,126.32
2022-11-30T07:23:18.849Z,122.15
2022-11-30T07:26:07.103Z,86.65
2022-11-30T07:28:58.801Z,155.50
2022-11-30T07:31:50.089Z,51.05
2022-11-30T07:34:35.668Z,97.75
2022-11-30T07:37:21.536Z,169.23
2022-11-30T07:40:08.368Z,116.45
2022-11-30T07:42:55.744Z,148.88
2022-11-30T07:45:41.411Z,67.40
2022-11-30T07:48:27.261Z,68.97
2022-11-30T07:51:18.418Z,64.03
2022-11-30T07:54:03.869Z,48.85
2022-11-30T07:56:49.269Z,48.17
2022-11-30T07:59:34.774Z,41.88
2022-11-30T08:02:20.617Z,41.40
2022-11-30T08:05:06.836Z,41.38
2022-11-30T08:07:53.695Z,51.25
2022-11-30T08:10:39.103Z,51.38
2022-11-30T08:13:25.128Z,47.75
2022-11-30T08:16:13.367Z,58.10
2022-11-30T08:18:59.111Z,47.25
2022-11-30T08:21:44.565Z,44.97
2022-11-30T08:24:30.069Z,48.67
2022-11-30T08:27:15.508Z,41.55
2022-11-30T08:30:01.132Z,35.72
2022-11-30T08:32:46.662Z,35.03
2022-11-30T08:35:32.018Z,40.38
2022-11-30T08:38:17.784Z,29.17
2022-11-30T08:41:04.159Z,39.17
2022-11-30T08:43:50.952Z,31.83
2022-11-30T08:46:53.413Z,41.08
2022-11-30T08:49:39.062Z,35.38
2022-11-30T08:52:25.134Z,39.50
2022-11-30T08:55:10.842Z,33.63
2022-11-30T08:57:56.370Z,28.40
2022-11-30T09:00:42.017Z,23.58
2022-11-30T09:03:27.403Z,21.33
2022-11-30T09:06:18.719Z,19.77
2022-11-30T09:09:04.161Z,13.77
2022-11-30T09:11:49.729Z,18.95
2022-11-30T09:14:35.152Z,19.25
2022-11-30T09:17:20.686Z,14.18
2022-11-30T09:20:07.751Z,13.63
2022-11-30T09:22:53.783Z,16.92
2022-11-30T09:25:39.057Z,19.05
2022-11-30T09:28:26.201Z,20.52
2022-11-30T09:31:13.199Z,18.00
2022-11-30T09:33:59.060Z,19.38
2022-11-30T09:36:44.325Z,21.73
2022-11-30T09:39:29.782Z,23.63
2022-11-30T09:42:31.960Z,20.88
2022-11-30T09:45:23.178Z,26.70
2022-11-30T09:48:29.043Z,24.85
2022-11-30T09:51:23.006Z,26.20
2022-11-30T09:56:58.165Z,25.02
2022-11-30T10:00:07.286Z,29.77
2022-11-30T10:02:56.214Z,23.55
2022-11-30T10:05:49.992Z,24.20
2022-11-30T10:08:44.815Z,22.83
2022-11-30T10:11:38.669Z,19.33
2022-11-30T10:14:33.790Z,26.13
2022-11-30T10:17:55.334Z,24.38
2022-11-30T10:20:43.774Z,20.13
2022-11-30T10:23:47.354Z,24.90
2022-11-30T10:26:35.670Z,25.25
2022-11-30T10:29:28.266Z,28.88
2022-11-30T10:32:18.406Z,26.45
2022-11-30T10:35:32.333Z,31.42
2022-11-30T10:38:34.435Z,32.08
2022-11-30T10:41:32.108Z,39.50
2022-11-30T10:44:27.707Z,32.95
2022-11-30T10:47:25.353Z,35.15
2022-11-30T10:50:15.594Z,33.25
2022-11-30T10:53:01.707Z,35.70
2022-11-30T10:56:08.311Z,31.15
2022-11-30T10:59:22.881Z,26.60
2022-11-30T11:02:34.718Z,28.65
2022-11-30T11:05:31.749Z,28.00
2022-11-30T11:08:24.743Z,30.35
2022-11-30T11:11:27.489Z,24.25
2022-11-30T11:14:24.100Z,27.25
2022-11-30T11:17:18.979Z,25.77
2022-11-30T11:20:38.940Z,26.70
2022-11-30T11:23:38.270Z,26.90
2022-11-30T11:26:26.228Z,26.63
2022-11-30T11:29:33.159Z,29.83
2022-11-30T11:32:24.919Z,30.70
2022-11-30T11:35:33.945Z,30.35
2022-11-30T11:38:31.149Z,29.67
2022-11-30T11:41:28.065Z,24.85
2022-11-30T11:44:21.490Z,25.92
2022-11-30T11:47:25.341Z,25.60
2022-11-30T11:50:57.736Z,21.65
2022-11-30T11:53:53.095Z,22.27
2022-11-30T11:56:39.732Z,29.02
2022-11-30T11:59:47.262Z,22.65
2022-11-30T12:02:40.667Z,25.38
2022-11-30T12:05:33.581Z,23.15
2022-11-30T12:08:44.300Z,27.40
2022-11-30T12:11:39.288Z,21.98
2022-11-30T12:14:26.438Z,21.23
2022-11-30T12:17:38.948Z,23.13
2022-11-30T12:20:47.782Z,24.63
2022-11-30T12:23:54.931Z,21.90
2022-11-30T12:26:44.305Z,24.83
2022-11-30T12:30:04.022Z,25.65
2022-11-30T12:33:10.624Z,21.88
2022-11-30T12:36:03.040Z,21.50
2022-11-30T12:38:50.039Z,21.97
2022-11-30T12:41:48.801Z,22.50
2022-11-30T12:44:42.857Z,21.90
2022-11-30T12:47:55.496Z,25.02
2022-11-30T12:51:09.203Z,19.27
2022-11-30T12:54:17.593Z,26.53
2022-11-30T12:57:21.182Z,19.77
2022-11-30T13:03:30.880Z,21.02
2022-11-30T13:06:27.530Z,18.90
2022-11-30T13:09:18.458Z,23.30
2022-11-30T13:12:11.850Z,18.85
2022-11-30T13:15:02.631Z,17.10
2022-11-30T13:17:49.866Z,19.40
2022-11-30T13:20:49.727Z,24.52
2022-11-30T13:23:59.510Z,21.95
2022-11-30T13:27:16.406Z,19.25
2022-11-30T13:30:25.758Z,21.58
2022-11-30T13:33:56.839Z,22.17
2022-11-30T13:36:45.139Z,19.95
2022-11-30T13:39:52.140Z,18.58
2022-11-30T13:42:49.013Z,24.00
2022-11-30T13:45:38.672Z,22.80
2022-11-30T13:48:34.397Z,24.38
2022-11-30T13:51:38.294Z,21.65
2022-11-30T13:54:50.799Z,23.50
2022-11-30T13:57:36.755Z,19.73
2022-11-30T14:00:31.402Z,21.10
2022-11-30T14:03:24.957Z,21.10
2022-11-30T14:09:16.356Z,22.33
2022-11-30T14:12:33.987Z,23.63
2022-11-30T14:15:38.484Z,23.60
2022-11-30T14:18:43.908Z,26.98
2022-11-30T14:21:31.313Z,26.85
2022-11-30T14:24:24.910Z,20.70
2022-11-30T14:27:19.091Z,26.83
2022-11-30T14:30:05.525Z,23.05
2022-11-30T14:33:03.026Z,25.75
2022-11-30T14:35:55.009Z,23.90
2022-11-30T14:38:42.225Z,26.75
2022-11-30T14:41:30.013Z,24.60
2022-11-30T14:44:15.602Z,25.30
2022-11-30T14:47:20.990Z,26.85
2022-11-30T14:50:07.219Z,23.80
2022-11-30T14:53:14.478Z,24.45
2022-11-30T14:56:18.132Z,26.65
2022-11-30T14:59:41.481Z,24.38
2022-11-30T15:02:35.806Z,20.52
2022-11-30T15:05:28.732Z,22.48
2022-11-30T15:08:16.584Z,23.15
2022-11-30T15:11:11.892Z,26.08
2022-11-30T15:14:09.899Z,25.60
2022-11-30T15:16:59.825Z,25.35
2022-11-30T15:19:48.865Z,26.70
2022-11-30T15:22:35.385Z,26.67
2022-11-30T15:25:23.192Z,30.25
2022-11-30T15:28:12.534Z,29.40
2022-11-30T15:31:01.794Z,29.13
2022-11-30T15:33:48.941Z,29.63
2022-11-30T15:36:39.379Z,31.48
2022-11-30T15:39:26.766Z,33.45
2022-11-30T15:42:20.321Z,32.85
2022-11-30T15:45:24.194Z,39.67
2022-11-30T15:48:29.897Z,43.17
2022-11-30T15:51:24.063Z,56.28
2022-11-30T15:54:09.875Z,49.85
2022-11-30T15:56:57.208Z,39.65
2022-11-30T15:59:43.216Z,42.53
2022-11-30T16:02:33.743Z,45.55
2022-11-30T16:05:19.706Z,44.30
2022-11-30T16:08:13.701Z,43.17
2022-11-30T16:11:01.996Z,40.00
2022-11-30T16:13:51.867Z,40.53
2022-11-30T16:16:37.385Z,43.45
2022-11-30T16:19:22.902Z,44.13
2022-11-30T16:22:12.723Z,45.60
2022-11-30T16:24:58.236Z,46.35
2022-11-30T16:27:44.466Z,51.60
2022-11-30T16:30:31.099Z,44.97
2022-11-30T16:33:19.482Z,41.28
2022-11-30T16:36:12.805Z,44.08
2022-11-30T16:41:45.126Z,43.60
2022-11-30T16:44:30.357Z,45.05
2022-11-30T16:47:15.910Z,45.15
2022-11-30T16:50:01.276Z,42.42
2022-11-30T16:52:47.276Z,45.08
2022-11-30T16:55:35.121Z,45.03
2022-11-30T16:58:20.844Z,40.38
2022-11-30T17:01:11.484Z,44.13
2022-11-30T17:03:57.186Z,42.13
2022-11-30T17:06:45.741Z,43.90
2022-11-30T17:09:34.556Z,40.42
2022-11-30T17:12:20.442Z,40.33
2022-11-30T17:15:06.340Z,41.67
2022-11-30T17:17:52.043Z,42.53
2022-11-30T17:20:38.401Z,42.50
2022-11-30T17:23:23.773Z,40.78
2022-11-30T17:26:09.706Z,40.13
2022-11-30T17:28:55.142Z,38.80
2022-11-30T17:31:40.848Z,42.47
2022-11-30T17:34:26.643Z,46.33
2022-11-30T17:37:13.739Z,35.38
2022-11-30T17:39:59.565Z,36.40
2022-11-30T17:42:44.777Z,38.22
2022-11-30T17:45:30.193Z,36.90
2022-11-30T17:48:16.375Z,35.25
2022-11-30T17:51:02.121Z,40.72
2022-11-30T17:53:48.116Z,38.80
2022-11-30T17:56:33.518Z,37.95
2022-11-30T17:59:19.312Z,37.13
2022-11-30T18:02:05.041Z,38.58
2022-11-30T18:04:52.659Z,35.38
2022-11-30T18:07:38.097Z,31.95
2022-11-30T18:10:23.551Z,44.88
2022-11-30T18:13:09.566Z,51.22
2022-11-30T18:16:16.888Z,55.03
2022-11-30T18:19:12.432Z,55.58
2022-11-30T18:21:57.911Z,60.88
2022-11-30T18:24:43.449Z,60.50
2022-11-30T18:27:29.229Z,50.20
2022-11-30T18:30:15.178Z,58.03
2022-11-30T18:33:01.635Z,54.75
2022-11-30T18:35:47.197Z,48.67
2022-11-30T18:38:37.513Z,49.28
2022-11-30T18:41:31.960Z,47.60
2022-11-30T18:44:17.456Z,49.13
2022-11-30T18:47:03.390Z,43.53
2022-11-30T18:49:49.453Z,48.38
2022-11-30T18:52:35.158Z,51.85
2022-11-30T18:55:22.351Z,50.60
2022-11-30T18:58:07.764Z,49.40
2022-11-30T19:00:53.461Z,48.17
2022-11-30T19:03:40.653Z,43.15
2022-11-30T19:06:32.736Z,52.30
2022-11-30T19:09:23.907Z,47.30
2022-11-30T19:12:09.324Z,53.30
2022-11-30T19:14:54.814Z,48.58
2022-11-30T19:17:40.710Z,46.03
2022-11-30T19:20:26.794Z,44.40
2022-11-30T19:23:12.194Z,44.15
2022-11-30T19:26:04.252Z,42.00
2022-11-30T19:28:49.634Z,42.70
2022-11-30T19:31:35.030Z,40.95
2022-11-30T19:34:20.658Z,45.63
2022-11-30T19:37:06.139Z,45.30
2022-11-30T19:39:51.644Z,43.33
2022-11-30T19:42:37.508Z,48.40
2022-11-30T19:45:23.596Z,44.88
2022-11-30T19:48:09.510Z,54.67
2022-11-30T19:50:55.074Z,49.55
2022-11-30T19:53:42.370Z,53.88
2022-11-30T19:56:30.210Z,53.15
2022-11-30T19:59:15.996Z,56.22
2022-11-30T20:02:02.061Z,56.88
2022-11-30T20:04:48.365Z,56.38
2022-11-30T20:07:35.730Z,55.20
2022-11-30T20:10:21.861Z,53.38
2022-11-30T20:13:07.368Z,53.45
2022-11-30T20:15:53.022Z,52.45
2022-11-30T20:18:44.206Z,56.80
2022-11-30T20:21:33.677Z,61.30
2022-11-30T20:24:19.184Z,54.08
2022-11-30T20:27:04.862Z,60.17
2022-11-30T20:29:51.679Z,67.88
2022-11-30T20:32:40.509Z,62.80
2022-11-30T20:35:26.360Z,62.47
2022-11-30T20:38:12.331Z,57.22
2022-11-30T20:40:58.505Z,55.83
2022-11-30T20:43:44.228Z,53.42
2022-11-30T20:46:32.976Z,60.80
2022-11-30T20:49:21.196Z,55.80
2022-11-30T20:52:06.676Z,54.10
2022-11-30T20:54:52.384Z,49.72
2022-11-30T20:57:37.702Z,57.92
2022-11-30T21:00:23.634Z,49.15
2022-11-30T21:03:08.902Z,50.47
2022-11-30T21:05:54.820Z,54.08
2022-11-30T21:08:41.070Z,52.47
2022-11-30T21:11:28.167Z,49.72
2022-11-30T21:14:14.572Z,44.90
2022-11-30T21:16:59.935Z,52.35
2022-11-30T21:19:45.451Z,50.45
2022-11-30T21:22:31.167Z,51.65
2022-11-30T21:25:16.735Z,43.55
2022-11-30T21:28:02.219Z,47.67
2022-11-30T21:30:47.820Z,46.38
2022-11-30T21:33:33.893Z,44.38
2022-11-30T21:36:20.001Z,48.75
2022-11-30T21:39:09.279Z,46.00
2022-11-30T21:41:55.218Z,39.05
2022-11-30T21:44:43.276Z,44.45
2022-11-30T21:47:32.377Z,47.75
2022-11-30T21:50:19.882Z,50.70
2022-11-30T21:53:07.179Z,49.15
2022-11-30T21:55:55.708Z,46.70
2022-11-30T21:58:43.854Z,48.00
2022-11-30T22:01:31.412Z,47.97
2022-11-30T22:04:16.774Z,52.78
2022-11-30T22:07:02.226Z,46.90
2022-11-30T22:09:48.123Z,48.03
2022-11-30T22:12:37.089Z,48.72
2022-11-30T22:15:22.779Z,52.88
2022-11-30T22:18:08.469Z,51.58
2022-11-30T22:20:54.321Z,53.40
2022-11-30T22:23:42.405Z,46.90
2022-11-30T22:26:33.358Z,49.70
2022-11-30T22:29:21.204Z,46.90
2022-11-30T22:32:06.619Z,55.67
2022-11-30T22:34:52.092Z,55.83
2022-11-30T22:37:37.687Z,53.33
2022-11-30T22:40:23.134Z,53.83
2022-11-30T22:43:08.642Z,70.25
2022-11-30T22:45:54.215Z,55.15
2022-11-30T22:48:40.792Z,53.65
2022-11-30T22:51:28.227Z,54.17
2022-11-30T22:54:13.478Z,53.78
2022-11-30T22:56:59.149Z,50.67
2022-11-30T22:59:45.172Z,58.10
2022-11-30T23:02:31.387Z,53.55
2022-11-30T23:05:16.672Z,51.13
2022-11-30T23:08:02.411Z,54.28
2022-11-30T23:10:47.772Z,54.78
2022-11-30T23:13:34.047Z,54.95
2022-11-30T23:16:20.705Z,54.80
2022-11-30T23:19:06.873Z,65.43
2022-11-30T23:21:53.337Z,60.75
2022-11-30T23:24:38.728Z,56.40
2022-11-30T23:27:24.292Z,61.22
2022-11-30T23:30:10.155Z,64.30
2022-11-30T23:32:56.578Z,58.10
2022-11-30T23:35:43.452Z,58.50
2022-11-30T23:38:28.899Z,56.30
2022-11-30T23:41:16.170Z,60.78
2022-11-30T23:44:02.072Z,59.92
2022-11-30T23:46:47.499Z,53.83
2022-11-30T23:49:32.943Z,60.33
2022-11-30T23:52:18.393Z,56.17
2022-11-30T23:55:07.797Z,61.15
2022-11-30T23:57:53.203Z,57.20
